createdAt,value
2019-01-25T00:00:09.384Z,42.90
2019-01-25T00:01:17.204Z,43.52
2019-01-25T00:02:22.582Z,44.03
2019-01-25T00:03:27.766Z,44.63
2019-01-25T00:04:33.100Z,43.02
2019-01-25T00:05:38.630Z,43.68
2019-01-25T00:06:43.923Z,42.93
2019-01-25T00:07:49.149Z,43.08
2019-01-25T00:08:54.459Z,42.40
2019-01-25T00:10:00.900Z,44.53
2019-01-25T00:11:06.635Z,43.68
2019-01-25T00:12:11.912Z,42.85
2019-01-25T00:13:17.283Z,46.18
2019-01-25T00:14:22.560Z,44.08
2019-01-25T00:15:27.938Z,41.95
2019-01-25T00:16:33.136Z,46.23
2019-01-25T00:17:38.344Z,44.42
2019-01-25T00:18:43.640Z,43.40
2019-01-25T00:19:48.831Z,43.13
2019-01-25T00:20:54.064Z,42.83
2019-01-25T00:21:59.265Z,45.92
2019-01-25T00:23:04.586Z,44.25
2019-01-25T00:24:09.794Z,45.08
2019-01-25T00:25:15.121Z,44.27
2019-01-25T00:26:20.346Z,41.88
2019-01-25T00:27:25.567Z,41.63
2019-01-25T00:28:30.852Z,44.88
2019-01-25T00:29:36.146Z,44.30
2019-01-25T00:30:41.342Z,44.50
2019-01-25T00:31:46.521Z,44.13
2019-01-25T00:32:51.816Z,44.60
2019-01-25T00:33:57.060Z,44.83
2019-01-25T00:35:02.347Z,42.73
2019-01-25T00:36:07.526Z,45.03
2019-01-25T00:37:12.728Z,45.63
2019-01-25T00:38:17.985Z,44.75
2019-01-25T00:39:23.253Z,43.60
2019-01-25T00:40:28.500Z,43.60
2019-01-25T00:41:33.768Z,45.05
2019-01-25T00:42:38.962Z,43.60
2019-01-25T00:43:44.312Z,43.17
2019-01-25T00:44:49.576Z,45.05
2019-01-25T00:45:54.868Z,43.50
2019-01-25T00:47:00.071Z,43.10
2019-01-25T00:48:05.452Z,45.48
2019-01-25T00:49:11.752Z,44.53
2019-01-25T00:50:18.808Z,47.23
2019-01-25T00:51:24.111Z,42.00
2019-01-25T00:52:29.303Z,44.80
2019-01-25T00:53:34.573Z,44.83
2019-01-25T00:54:39.773Z,44.50
2019-01-25T00:55:44.970Z,45.95
2019-01-25T00:56:50.152Z,45.30
2019-01-25T00:57:55.464Z,43.70
2019-01-25T00:59:00.645Z,44.85
2019-01-25T01:00:12.390Z,45.23
2019-01-25T01:01:17.634Z,44.45
2019-01-25T01:02:22.957Z,44.93
2019-01-25T01:03:28.265Z,44.10
2019-01-25T01:04:33.426Z,44.18
2019-01-25T01:05:38.719Z,43.75
2019-01-25T01:06:43.925Z,46.68
2019-01-25T01:07:51.034Z,45.38
2019-01-25T01:08:56.294Z,45.28
2019-01-25T01:10:01.504Z,44.25
2019-01-25T01:11:06.748Z,44.10
2019-01-25T01:12:13.142Z,45.10
2019-01-25T01:13:18.325Z,42.23
2019-01-25T01:14:23.600Z,44.23
2019-01-25T01:15:28.835Z,44.53
2019-01-25T01:16:34.052Z,44.45
2019-01-25T01:17:39.247Z,42.98
2019-01-25T01:18:44.535Z,44.20
2019-01-25T01:19:49.817Z,44.08
2019-01-25T01:20:55.001Z,44.80
2019-01-25T01:22:00.188Z,44.48
2019-01-25T01:23:05.393Z,43.52
2019-01-25T01:24:10.624Z,45.70
2019-01-25T01:25:15.926Z,44.63
2019-01-25T01:26:21.230Z,46.18
2019-01-25T01:27:26.516Z,45.00
2019-01-25T01:28:31.689Z,43.98
2019-01-25T01:29:36.984Z,45.83
2019-01-25T01:30:42.188Z,45.03
2019-01-25T01:31:49.959Z,46.20
2019-01-25T01:32:55.380Z,45.12
2019-01-25T01:34:00.597Z,43.60
2019-01-25T01:35:06.653Z,45.38
2019-01-25T01:36:11.854Z,45.25
2019-01-25T01:37:17.149Z,45.38
2019-01-25T01:38:22.373Z,42.83
2019-01-25T01:39:27.623Z,45.30
2019-01-25T01:40:32.918Z,44.27
2019-01-25T01:41:38.233Z,45.28
2019-01-25T01:42:43.429Z,44.55
2019-01-25T01:43:48.629Z,46.95
2019-01-25T01:44:53.998Z,45.58
2019-01-25T01:45:59.290Z,45.17
2019-01-25T01:47:05.572Z,43.30
2019-01-25T01:48:10.902Z,45.17
2019-01-25T01:49:17.082Z,45.78
2019-01-25T01:50:22.407Z,44.67
2019-01-25T01:51:27.641Z,47.17
2019-01-25T01:52:32.892Z,45.33
2019-01-25T01:53:38.110Z,44.48
2019-01-25T01:54:43.433Z,44.45
2019-01-25T01:55:48.658Z,44.80
2019-01-25T01:56:53.965Z,45.28
2019-01-25T01:57:59.263Z,43.05
2019-01-25T01:59:04.585Z,44.25
2019-01-25T02:00:13.537Z,44.08
2019-01-25T02:01:18.819Z,44.83
2019-01-25T02:02:24.179Z,43.98
2019-01-25T02:03:29.397Z,45.43
2019-01-25T02:04:34.592Z,42.93
2019-01-25T02:05:39.898Z,43.68
2019-01-25T02:06:45.239Z,44.38
2019-01-25T02:07:50.509Z,45.85
2019-01-25T02:08:55.745Z,43.87
2019-01-25T02:10:01.067Z,43.85
2019-01-25T02:11:06.472Z,47.05
2019-01-25T02:12:11.725Z,45.12
2019-01-25T02:13:16.948Z,43.50
2019-01-25T02:14:22.264Z,44.75
2019-01-25T02:15:28.619Z,43.13
2019-01-25T02:16:33.847Z,44.38
2019-01-25T02:17:39.161Z,44.30
2019-01-25T02:18:44.411Z,43.25
2019-01-25T02:19:49.755Z,46.08
2019-01-25T02:20:55.146Z,44.48
2019-01-25T02:22:00.546Z,44.30
2019-01-25T02:23:05.982Z,43.90
2019-01-25T02:24:11.180Z,42.50
2019-01-25T02:25:17.106Z,46.08
2019-01-25T02:26:22.458Z,44.88
2019-01-25T02:27:27.868Z,44.98
2019-01-25T02:28:33.090Z,45.23
2019-01-25T02:29:38.270Z,43.68
2019-01-25T02:30:43.575Z,44.90
2019-01-25T02:31:48.930Z,43.75
2019-01-25T02:32:54.338Z,43.15
2019-01-25T02:34:00.674Z,44.70
2019-01-25T02:35:06.350Z,44.48
2019-01-25T02:36:11.643Z,46.10
2019-01-25T02:37:16.943Z,46.98
2019-01-25T02:38:22.131Z,43.92
2019-01-25T02:39:27.535Z,45.65
2019-01-25T02:40:38.692Z,44.63
2019-01-25T02:41:39.748Z,42.65
2019-01-25T02:42:45.082Z,43.75
2019-01-25T02:43:50.390Z,42.08
2019-01-25T02:44:55.632Z,43.50
2019-01-25T02:46:00.943Z,42.55
2019-01-25T02:47:06.271Z,45.67
2019-01-25T02:48:11.603Z,43.60
2019-01-25T02:49:16.927Z,44.08
2019-01-25T02:50:22.122Z,43.83
2019-01-25T02:51:27.453Z,42.25
2019-01-25T02:52:32.734Z,45.58
2019-01-25T02:53:38.032Z,43.40
2019-01-25T02:54:43.529Z,45.58
2019-01-25T02:55:48.790Z,44.35
2019-01-25T02:56:54.094Z,44.53
2019-01-25T02:57:59.399Z,43.87
2019-01-25T02:59:04.674Z,44.55
2019-01-25T03:00:17.671Z,45.00
2019-01-25T03:01:22.893Z,45.73
2019-01-25T03:02:28.208Z,45.12
2019-01-25T03:03:33.578Z,42.95
2019-01-25T03:04:38.806Z,44.88
2019-01-25T03:05:44.027Z,43.60
2019-01-25T03:06:49.352Z,46.80
2019-01-25T03:07:54.670Z,44.08
2019-01-25T03:08:59.901Z,44.27
2019-01-25T03:10:07.397Z,46.55
2019-01-25T03:11:12.672Z,48.25
2019-01-25T03:12:18.090Z,45.35
2019-01-25T03:13:23.389Z,47.83
2019-01-25T03:14:28.741Z,45.23
2019-01-25T03:15:33.950Z,47.58
2019-01-25T03:16:39.262Z,44.23
2019-01-25T03:17:44.636Z,43.78
2019-01-25T03:18:50.006Z,44.65
2019-01-25T03:19:55.319Z,45.65
2019-01-25T03:21:00.649Z,44.93
2019-01-25T03:22:06.014Z,44.58
2019-01-25T03:23:11.334Z,44.18
2019-01-25T03:24:16.618Z,46.68
2019-01-25T03:25:24.304Z,43.55
2019-01-25T03:26:29.734Z,44.45
2019-01-25T03:27:35.083Z,47.53
2019-01-25T03:28:40.235Z,44.58
2019-01-25T03:29:45.420Z,45.20
2019-01-25T03:30:50.658Z,46.77
2019-01-25T03:31:56.058Z,44.10
2019-01-25T03:33:01.307Z,45.17
2019-01-25T03:34:06.528Z,46.40
2019-01-25T03:35:13.480Z,46.23
2019-01-25T03:36:18.794Z,45.33
2019-01-25T03:37:24.121Z,46.92
2019-01-25T03:38:29.315Z,46.73
2019-01-25T03:39:34.608Z,44.75
2019-01-25T03:40:39.860Z,47.03
2019-01-25T03:41:45.222Z,45.15
2019-01-25T03:42:50.701Z,47.13
2019-01-25T03:43:55.992Z,47.53
2019-01-25T03:45:04.440Z,47.20
2019-01-25T03:46:09.831Z,46.83
2019-01-25T03:47:15.168Z,47.27
2019-01-25T03:48:20.392Z,48.52
2019-01-25T03:49:25.638Z,47.93
2019-01-25T03:50:31.797Z,49.20
2019-01-25T03:51:37.074Z,49.33
2019-01-25T03:52:42.434Z,49.75
2019-01-25T03:53:47.782Z,50.08
2019-01-25T03:54:53.166Z,50.05
2019-01-25T03:55:58.516Z,49.80
2019-01-25T03:57:03.800Z,48.40
2019-01-25T03:58:09.104Z,49.50
2019-01-25T03:59:14.395Z,48.45
2019-01-25T04:00:21.503Z,50.15
2019-01-25T04:01:28.850Z,50.12
2019-01-25T04:02:34.215Z,50.28
2019-01-25T04:03:39.437Z,52.27
2019-01-25T04:04:44.693Z,51.20
2019-01-25T04:05:49.955Z,52.67
2019-01-25T04:06:55.284Z,53.10
2019-01-25T04:08:00.514Z,52.20
2019-01-25T04:09:09.506Z,51.68
2019-01-25T04:10:16.823Z,50.90
2019-01-25T04:11:22.030Z,50.67
2019-01-25T04:12:27.380Z,51.08
2019-01-25T04:13:32.687Z,55.78
2019-01-25T04:14:37.870Z,52.50
2019-01-25T04:15:43.169Z,51.42
2019-01-25T04:16:48.504Z,52.62
2019-01-25T04:17:53.789Z,50.98
2019-01-25T04:18:59.054Z,52.23
2019-01-25T04:20:05.085Z,50.80
2019-01-25T04:21:10.389Z,50.45
2019-01-25T04:22:15.727Z,52.30
2019-01-25T04:23:20.955Z,49.53
2019-01-25T04:24:26.175Z,51.68
2019-01-25T04:25:31.394Z,54.20
2019-01-25T04:26:36.771Z,50.78
2019-01-25T04:27:42.007Z,51.77
2019-01-25T04:28:47.408Z,53.98
2019-01-25T04:29:52.626Z,53.28
2019-01-25T04:30:57.927Z,53.60
2019-01-25T04:32:03.159Z,55.38
2019-01-25T04:33:08.437Z,55.20
2019-01-25T04:34:13.659Z,54.08
2019-01-25T04:35:19.098Z,52.83
2019-01-25T04:36:24.411Z,54.10
2019-01-25T04:37:29.705Z,53.63
2019-01-25T04:38:34.909Z,55.63
2019-01-25T04:39:40.177Z,52.93
2019-01-25T04:40:45.515Z,53.30
2019-01-25T04:41:50.704Z,54.20
2019-01-25T04:42:56.025Z,53.20
2019-01-25T04:44:01.218Z,54.73
2019-01-25T04:45:07.996Z,55.33
2019-01-25T04:46:13.194Z,54.85
2019-01-25T04:47:26.827Z,52.43
2019-01-25T04:48:32.086Z,51.35
2019-01-25T04:49:37.314Z,50.33
2019-01-25T04:50:42.572Z,49.98
2019-01-25T04:51:47.892Z,47.95
2019-01-25T04:52:53.575Z,44.83
2019-01-25T04:53:58.847Z,44.13
2019-01-25T04:55:12.028Z,40.08
2019-01-25T04:56:17.331Z,40.00
2019-01-25T04:57:22.672Z,39.42
2019-01-25T04:58:27.875Z,38.70
2019-01-25T04:59:33.173Z,36.70
2019-01-25T05:00:38.372Z,33.98
2019-01-25T05:01:43.679Z,35.63
2019-01-25T05:02:59.340Z,34.80
2019-01-25T05:04:04.695Z,32.05
2019-01-25T05:05:10.084Z,32.67
2019-01-25T05:06:17.804Z,35.40
2019-01-25T05:07:22.996Z,34.60
2019-01-25T05:08:28.095Z,32.90
2019-01-25T05:09:38.020Z,32.05
2019-01-25T05:10:43.217Z,34.70
2019-01-25T05:11:48.468Z,32.63
2019-01-25T05:12:53.898Z,32.95
2019-01-25T05:13:59.068Z,33.40
2019-01-25T05:15:04.471Z,32.90
2019-01-25T05:16:13.530Z,32.78
2019-01-25T05:17:18.750Z,34.40
2019-01-25T05:18:23.885Z,33.80
2019-01-25T05:19:29.127Z,32.65
2019-01-25T05:20:34.526Z,33.55
2019-01-25T05:21:39.709Z,30.52
2019-01-25T05:22:44.863Z,33.48
2019-01-25T05:23:49.950Z,34.15
2019-01-25T05:24:55.254Z,31.15
2019-01-25T05:26:00.538Z,33.80
2019-01-25T05:27:05.947Z,33.30
2019-01-25T05:28:15.592Z,34.98
2019-01-25T05:29:24.821Z,34.18
2019-01-25T05:30:30.041Z,34.33
2019-01-25T05:31:35.195Z,32.38
2019-01-25T05:32:40.358Z,34.33
2019-01-25T05:33:53.224Z,34.83
2019-01-25T05:34:58.515Z,34.63
2019-01-25T05:36:03.866Z,33.85
2019-01-25T05:37:11.427Z,33.83
2019-01-25T05:38:16.602Z,34.83
2019-01-25T05:39:21.804Z,34.23
2019-01-25T05:40:27.451Z,33.53
2019-01-25T05:41:32.681Z,33.78
2019-01-25T05:42:37.876Z,33.85
2019-01-25T05:43:43.733Z,33.38
2019-01-25T05:44:48.981Z,35.40
2019-01-25T05:45:54.234Z,36.65
2019-01-25T05:46:59.541Z,34.35
2019-01-25T05:48:04.876Z,33.67
2019-01-25T05:49:10.115Z,35.83
2019-01-25T05:50:15.461Z,34.78
2019-01-25T05:51:20.676Z,34.55
2019-01-25T05:52:25.760Z,37.15
2019-01-25T05:53:30.985Z,35.28
2019-01-25T05:54:36.150Z,37.73
2019-01-25T05:55:41.357Z,36.17
2019-01-25T05:56:46.550Z,35.83
2019-01-25T05:57:54.785Z,35.90
2019-01-25T05:58:59.923Z,35.55
2019-01-25T06:00:10.607Z,38.10
2019-01-25T06:01:15.792Z,36.45
2019-01-25T06:02:20.964Z,38.80
2019-01-25T06:03:26.234Z,39.00
2019-01-25T06:04:35.931Z,38.25
2019-01-25T06:05:41.275Z,37.95
2019-01-25T06:06:46.555Z,37.75
2019-01-25T06:07:51.659Z,40.03
2019-01-25T06:08:57.059Z,37.90
2019-01-25T06:10:02.220Z,38.88
2019-01-25T06:11:11.285Z,40.38
2019-01-25T06:12:16.561Z,37.48
2019-01-25T06:13:21.845Z,40.33
2019-01-25T06:14:27.051Z,44.90
2019-01-25T06:15:32.309Z,50.12
2019-01-25T06:16:40.506Z,47.65
2019-01-25T06:17:45.720Z,49.40
2019-01-25T06:18:50.946Z,48.65
2019-01-25T06:19:58.891Z,51.98
2019-01-25T06:21:04.611Z,51.65
2019-01-25T06:22:09.839Z,53.45
2019-01-25T06:23:15.073Z,53.92
2019-01-25T06:24:20.248Z,53.28
2019-01-25T06:25:25.496Z,51.80
2019-01-25T06:26:32.237Z,54.13
2019-01-25T06:27:38.028Z,50.17
2019-01-25T06:28:43.283Z,49.55
2019-01-25T06:29:48.595Z,50.63
2019-01-25T06:30:53.954Z,49.05
2019-01-25T06:31:59.179Z,47.80
2019-01-25T06:33:04.408Z,48.65
2019-01-25T06:34:09.622Z,47.88
2019-01-25T06:35:14.906Z,47.78
2019-01-25T06:36:20.164Z,48.17
2019-01-25T06:37:25.451Z,45.78
2019-01-25T06:38:30.762Z,45.63
2019-01-25T06:39:36.014Z,44.48
2019-01-25T06:40:41.251Z,45.65
2019-01-25T06:41:46.512Z,47.27
2019-01-25T06:42:52.638Z,46.48
2019-01-25T06:43:57.831Z,47.95
2019-01-25T06:45:03.081Z,47.20
2019-01-25T06:46:08.345Z,47.17
2019-01-25T06:47:13.411Z,49.25
2019-01-25T06:48:18.786Z,45.63
2019-01-25T06:49:23.881Z,47.20
2019-01-25T06:50:29.124Z,47.55
2019-01-25T06:51:34.435Z,48.28
2019-01-25T06:52:39.715Z,48.78
2019-01-25T06:53:44.921Z,50.50
2019-01-25T06:54:50.049Z,48.73
2019-01-25T06:55:55.236Z,46.10
2019-01-25T06:57:02.060Z,47.05
2019-01-25T06:58:23.538Z,42.95
2019-01-25T06:59:36.007Z,43.02
2019-01-25T07:00:45.200Z,41.42
2019-01-25T07:02:12.504Z,42.45
2019-01-25T07:03:17.703Z,41.58
2019-01-25T07:04:24.159Z,40.58
2019-01-25T07:05:29.316Z,43.63
2019-01-25T07:06:34.654Z,43.52
2019-01-25T07:07:41.434Z,46.53
2019-01-25T07:08:46.690Z,43.02
2019-01-25T07:09:51.880Z,42.48
2019-01-25T07:10:57.136Z,41.95
2019-01-25T07:12:02.222Z,42.62
2019-01-25T07:13:07.555Z,41.40
2019-01-25T07:14:12.731Z,43.68
2019-01-25T07:15:21.421Z,41.80
2019-01-25T07:16:29.496Z,40.33
2019-01-25T07:17:34.752Z,40.95
2019-01-25T07:18:40.034Z,39.92
2019-01-25T07:19:45.232Z,41.20
2019-01-25T07:20:50.358Z,38.95
2019-01-25T07:21:55.462Z,40.35
2019-01-25T07:23:00.756Z,41.20
2019-01-25T07:24:06.228Z,40.30
2019-01-25T07:25:11.864Z,41.40
2019-01-25T07:26:17.156Z,39.88
2019-01-25T07:27:22.429Z,39.65
2019-01-25T07:28:27.617Z,38.58
2019-01-25T07:29:32.875Z,41.20
2019-01-25T07:30:38.461Z,40.73
2019-01-25T07:31:43.685Z,37.35
2019-01-25T07:32:48.883Z,40.78
2019-01-25T07:33:54.200Z,39.50
2019-01-25T07:34:59.399Z,41.20
2019-01-25T07:36:04.909Z,41.70
2019-01-25T07:37:10.157Z,39.75
2019-01-25T07:38:15.457Z,42.40
2019-01-25T07:39:23.391Z,40.73
2019-01-25T07:40:28.525Z,41.20
2019-01-25T07:41:33.785Z,39.48
2019-01-25T07:42:39.009Z,37.40
2019-01-25T07:43:44.268Z,42.70
2019-01-25T07:44:49.608Z,38.98
2019-01-25T07:45:54.874Z,39.10
2019-01-25T07:47:00.049Z,37.48
2019-01-25T07:48:05.291Z,37.80
2019-01-25T07:49:10.614Z,36.98
2019-01-25T07:50:16.140Z,32.60
2019-01-25T07:51:21.409Z,34.00
2019-01-25T07:52:26.604Z,33.63
2019-01-25T07:53:31.852Z,34.58
2019-01-25T07:54:37.108Z,34.45
2019-01-25T07:55:42.339Z,33.23
2019-01-25T07:56:47.510Z,31.48
2019-01-25T07:57:52.723Z,33.73
2019-01-25T07:58:57.973Z,33.42
2019-01-25T08:00:03.255Z,36.23
2019-01-25T08:01:08.375Z,32.58
2019-01-25T08:02:13.665Z,33.63
2019-01-25T08:03:19.036Z,33.02
2019-01-25T08:04:24.264Z,33.35
2019-01-25T08:05:29.517Z,35.00
2019-01-25T08:06:34.676Z,33.63
2019-01-25T08:07:40.178Z,34.13
2019-01-25T08:08:45.444Z,31.33
2019-01-25T08:09:50.734Z,32.13
2019-01-25T08:10:55.911Z,33.13
2019-01-25T08:12:07.398Z,30.57
2019-01-25T08:13:07.921Z,30.68
2019-01-25T08:14:13.194Z,32.58
2019-01-25T08:15:19.837Z,32.80
2019-01-25T08:16:25.140Z,30.52
2019-01-25T08:17:30.325Z,32.28
2019-01-25T08:18:35.639Z,31.37
2019-01-25T08:19:40.937Z,30.45
2019-01-25T08:20:46.119Z,28.92
2019-01-25T08:21:51.340Z,29.70
2019-01-25T08:22:56.591Z,27.80
2019-01-25T08:24:02.184Z,30.62
2019-01-25T08:25:07.804Z,31.35
2019-01-25T08:26:12.957Z,30.90
2019-01-25T08:27:18.376Z,30.30
2019-01-25T08:28:23.784Z,28.90
2019-01-25T08:29:29.014Z,29.87
2019-01-25T08:30:34.161Z,29.40
2019-01-25T08:31:39.513Z,29.00
2019-01-25T08:32:44.725Z,27.15
2019-01-25T08:33:49.937Z,26.00
2019-01-25T08:34:55.149Z,27.95
2019-01-25T08:36:00.341Z,25.20
2019-01-25T08:37:05.584Z,25.50
2019-01-25T08:38:10.799Z,22.50
2019-01-25T08:39:15.997Z,22.50
2019-01-25T08:40:21.184Z,23.15
2019-01-25T08:41:26.386Z,24.65
2019-01-25T08:42:31.599Z,24.72
2019-01-25T08:43:36.705Z,24.18
2019-01-25T08:44:41.872Z,24.98
2019-01-25T08:45:46.905Z,25.45
2019-01-25T08:46:52.142Z,26.17
2019-01-25T08:47:57.426Z,25.92
2019-01-25T08:49:02.705Z,24.60
2019-01-25T08:50:14.971Z,23.22
2019-01-25T08:51:20.202Z,23.15
2019-01-25T08:52:25.515Z,23.77
2019-01-25T08:53:30.720Z,24.98
2019-01-25T08:54:35.910Z,23.50
2019-01-25T08:55:41.184Z,22.50
2019-01-25T08:56:46.390Z,24.02
2019-01-25T08:57:52.133Z,26.00
2019-01-25T08:58:58.841Z,25.37
2019-01-25T09:00:05.655Z,21.48
2019-01-25T09:01:11.321Z,21.30
2019-01-25T09:02:16.541Z,23.62
2019-01-25T09:03:21.668Z,25.27
2019-01-25T09:04:26.798Z,24.98
2019-01-25T09:05:32.347Z,24.52
2019-01-25T09:06:37.577Z,25.62
2019-01-25T09:07:42.930Z,24.55
2019-01-25T09:08:48.232Z,23.90
2019-01-25T09:09:53.332Z,23.50
2019-01-25T09:10:58.644Z,25.05
2019-01-25T09:12:04.818Z,23.70
2019-01-25T09:13:09.909Z,23.32
2019-01-25T09:14:15.090Z,23.75
2019-01-25T09:15:25.747Z,24.02
2019-01-25T09:16:30.931Z,22.37
2019-01-25T09:17:36.196Z,22.93
2019-01-25T09:18:41.410Z,25.17
2019-01-25T09:19:46.645Z,23.38
2019-01-25T09:20:51.848Z,24.98
2019-01-25T09:21:57.038Z,24.02
2019-01-25T09:23:02.211Z,23.80
2019-01-25T09:24:09.718Z,24.25
2019-01-25T09:25:14.951Z,24.67
2019-01-25T09:26:20.283Z,22.90
2019-01-25T09:27:25.448Z,23.32
2019-01-25T09:28:30.578Z,23.83
2019-01-25T09:29:35.763Z,25.48
2019-01-25T09:30:41.078Z,23.07
2019-01-25T09:31:46.317Z,25.17
2019-01-25T09:32:51.550Z,23.00
2019-01-25T09:33:56.739Z,23.45
2019-01-25T09:35:01.955Z,24.12
2019-01-25T09:36:07.394Z,26.97
2019-01-25T09:37:12.652Z,24.92
2019-01-25T09:38:17.698Z,25.45
2019-01-25T09:39:22.905Z,24.55
2019-01-25T09:40:28.729Z,23.73
2019-01-25T09:41:34.096Z,24.10
2019-01-25T09:42:39.276Z,24.60
2019-01-25T09:43:44.516Z,26.48
2019-01-25T09:44:49.681Z,24.80
2019-01-25T09:45:55.102Z,27.00
2019-01-25T09:47:00.388Z,24.70
2019-01-25T09:48:05.685Z,25.50
2019-01-25T09:49:10.910Z,23.45
2019-01-25T09:50:17.243Z,24.40
2019-01-25T09:51:22.428Z,27.40
2019-01-25T09:52:27.521Z,26.57
2019-01-25T09:53:32.748Z,24.52
2019-01-25T09:54:39.014Z,24.50
2019-01-25T09:55:44.207Z,24.45
2019-01-25T09:56:49.392Z,23.60
2019-01-25T09:57:55.746Z,23.45
2019-01-25T09:59:01.386Z,23.07
2019-01-25T10:00:17.323Z,24.57
2019-01-25T10:01:22.537Z,23.15
2019-01-25T10:02:28.135Z,23.10
2019-01-25T10:03:33.255Z,24.23
2019-01-25T10:04:38.523Z,23.20
2019-01-25T10:05:43.777Z,25.10
2019-01-25T10:06:49.457Z,25.82
2019-01-25T10:07:54.839Z,24.40
2019-01-25T10:09:00.025Z,22.30
2019-01-25T10:10:05.777Z,23.98
2019-01-25T10:11:11.075Z,22.65
2019-01-25T10:12:16.335Z,23.65
2019-01-25T10:13:21.531Z,22.00
2019-01-25T10:14:26.789Z,23.20
2019-01-25T10:15:44.861Z,23.30
2019-01-25T10:16:50.084Z,23.60
2019-01-25T10:17:55.175Z,25.90
2019-01-25T10:19:00.454Z,23.30
2019-01-25T10:20:06.569Z,24.75
2019-01-25T10:21:11.739Z,26.90
2019-01-25T10:22:16.884Z,24.63
2019-01-25T10:23:22.381Z,24.25
2019-01-25T10:24:27.602Z,25.45
2019-01-25T10:25:32.764Z,25.37
2019-01-25T10:26:38.010Z,24.32
2019-01-25T10:27:43.337Z,23.42
2019-01-25T10:28:48.613Z,25.52
2019-01-25T10:29:53.826Z,25.25
2019-01-25T10:30:59.022Z,24.23
2019-01-25T10:32:04.235Z,24.05
2019-01-25T10:33:10.572Z,24.50
2019-01-25T10:34:15.892Z,26.40
2019-01-25T10:35:21.163Z,23.75
2019-01-25T10:36:26.401Z,25.43
2019-01-25T10:37:31.512Z,23.75
2019-01-25T10:38:36.771Z,25.23
2019-01-25T10:39:42.033Z,25.50
2019-01-25T10:40:47.447Z,25.08
2019-01-25T10:41:52.597Z,24.95
2019-01-25T10:42:57.843Z,25.12
2019-01-25T10:44:03.155Z,25.37
2019-01-25T10:45:15.631Z,23.85
2019-01-25T10:46:20.878Z,24.45
2019-01-25T10:47:26.135Z,25.82
2019-01-25T10:48:31.246Z,25.48
2019-01-25T10:49:36.468Z,26.60
2019-01-25T10:50:41.553Z,26.77
2019-01-25T10:51:46.667Z,26.85
2019-01-25T10:52:51.924Z,25.15
2019-01-25T10:53:57.125Z,26.20
2019-01-25T10:55:05.531Z,25.90
2019-01-25T10:56:10.746Z,25.82
2019-01-25T10:57:16.016Z,23.95
2019-01-25T10:58:21.321Z,24.43
2019-01-25T10:59:28.477Z,24.72
2019-01-25T11:01:30.232Z,25.43
2019-01-25T11:02:39.263Z,21.77
2019-01-25T11:03:52.998Z,23.67
2019-01-25T11:04:59.397Z,25.90
2019-01-25T11:06:12.787Z,23.98
2019-01-25T11:07:17.731Z,22.87
2019-01-25T11:08:22.999Z,26.20
2019-01-25T11:09:28.267Z,23.07
2019-01-25T11:10:33.507Z,24.18
2019-01-25T11:11:38.751Z,24.25
2019-01-25T11:12:43.944Z,24.27
2019-01-25T11:13:49.175Z,25.43
2019-01-25T11:14:54.421Z,24.45
2019-01-25T11:15:59.541Z,24.27
2019-01-25T11:17:07.604Z,24.02
2019-01-25T11:18:12.686Z,23.15
2019-01-25T11:19:17.954Z,23.62
2019-01-25T11:20:23.681Z,24.07
2019-01-25T11:21:28.854Z,24.87
2019-01-25T11:22:34.002Z,22.95
2019-01-25T11:23:39.515Z,24.52
2019-01-25T11:24:46.539Z,26.57
2019-01-25T11:25:51.760Z,26.45
2019-01-25T11:27:00.393Z,24.63
2019-01-25T11:28:03.807Z,25.40
2019-01-25T11:29:11.812Z,24.52
2019-01-25T11:30:17.279Z,26.07
2019-01-25T11:31:22.557Z,25.52
2019-01-25T11:32:27.808Z,24.85
2019-01-25T11:33:33.068Z,27.27
2019-01-25T11:34:38.496Z,27.65
2019-01-25T11:35:43.783Z,27.10
2019-01-25T11:36:49.126Z,28.27
2019-01-25T11:37:54.435Z,25.92
2019-01-25T11:38:59.656Z,26.45
2019-01-25T11:40:08.288Z,25.88
2019-01-25T11:41:13.378Z,28.83
2019-01-25T11:42:18.635Z,26.90
2019-01-25T11:43:23.786Z,27.52
2019-01-25T11:44:28.949Z,27.27
2019-01-25T11:45:34.200Z,26.93
2019-01-25T11:46:39.451Z,27.95
2019-01-25T11:47:44.595Z,29.02
2019-01-25T11:48:50.888Z,29.02
2019-01-25T11:49:56.096Z,27.70
2019-01-25T11:51:01.272Z,30.05
2019-01-25T11:52:06.529Z,29.85
2019-01-25T11:53:11.818Z,30.45
2019-01-25T11:54:17.133Z,30.30
2019-01-25T11:55:22.382Z,30.75
2019-01-25T11:56:27.693Z,31.42
2019-01-25T11:57:32.824Z,30.20
2019-01-25T11:58:38.111Z,30.08
2019-01-25T11:59:43.342Z,29.27
2019-01-25T12:00:50.035Z,30.10
2019-01-25T12:01:55.267Z,30.92
2019-01-25T12:03:00.459Z,31.70
2019-01-25T12:04:06.008Z,32.48
2019-01-25T12:05:12.517Z,32.35
2019-01-25T12:06:17.765Z,29.25
2019-01-25T12:07:26.942Z,29.85
2019-01-25T12:08:32.148Z,29.87
2019-01-25T12:09:37.264Z,31.07
2019-01-25T12:10:42.676Z,30.95
2019-01-25T12:11:47.874Z,31.70
2019-01-25T12:12:53.139Z,31.73
2019-01-25T12:13:58.389Z,33.42
2019-01-25T12:15:03.912Z,35.48
2019-01-25T12:16:09.192Z,35.23
2019-01-25T12:17:14.367Z,34.33
2019-01-25T12:18:19.638Z,37.38
2019-01-25T12:19:24.790Z,34.50
2019-01-25T12:20:30.962Z,35.33
2019-01-25T12:21:36.102Z,33.60
2019-01-25T12:22:41.292Z,36.93
2019-01-25T12:23:46.425Z,33.65
2019-01-25T12:24:51.629Z,34.05
2019-01-25T12:25:57.723Z,34.00
2019-01-25T12:27:03.058Z,34.92
2019-01-25T12:28:08.322Z,37.10
2019-01-25T12:29:13.612Z,35.95
2019-01-25T12:30:22.123Z,33.83
2019-01-25T12:31:27.230Z,34.40
2019-01-25T12:32:32.454Z,35.60
2019-01-25T12:33:37.723Z,35.85
2019-01-25T12:34:42.891Z,34.98
2019-01-25T12:35:48.119Z,35.35
2019-01-25T12:36:53.295Z,35.65
2019-01-25T12:37:58.506Z,35.05
2019-01-25T12:39:05.299Z,36.55
2019-01-25T12:40:12.282Z,37.03
2019-01-25T12:41:17.577Z,38.28
2019-01-25T12:42:22.870Z,36.25
2019-01-25T12:43:28.050Z,37.48
2019-01-25T12:44:33.259Z,37.05
2019-01-25T12:45:38.575Z,39.42
2019-01-25T12:46:43.886Z,37.73
2019-01-25T12:47:49.143Z,38.73
2019-01-25T12:48:54.559Z,42.30
2019-01-25T12:50:00.436Z,40.43
2019-01-25T12:51:22.370Z,46.23
2019-01-25T12:52:27.665Z,41.00
2019-01-25T12:53:34.173Z,43.63
2019-01-25T12:54:39.428Z,44.60
2019-01-25T12:55:44.654Z,42.45
2019-01-25T12:56:49.918Z,43.25
2019-01-25T12:57:55.060Z,41.70
2019-01-25T12:59:00.244Z,46.95
2019-01-25T13:00:08.955Z,45.30
2019-01-25T13:01:14.275Z,44.50
2019-01-25T13:02:20.396Z,47.58
2019-01-25T13:03:25.653Z,47.40
2019-01-25T13:04:30.816Z,46.92
2019-01-25T13:05:36.123Z,46.40
2019-01-25T13:06:41.450Z,46.77
2019-01-25T13:07:47.716Z,47.43
2019-01-25T13:08:52.935Z,47.83
2019-01-25T13:09:58.158Z,48.35
2019-01-25T13:11:03.472Z,49.67
2019-01-25T13:12:08.553Z,50.92
2019-01-25T13:13:13.798Z,49.77
2019-01-25T13:14:18.958Z,49.50
2019-01-25T13:15:24.220Z,52.27
2019-01-25T13:16:29.369Z,49.00
2019-01-25T13:17:35.632Z,54.18
2019-01-25T13:18:40.841Z,51.42
2019-01-25T13:19:46.104Z,53.78
2019-01-25T13:20:51.361Z,51.50
2019-01-25T13:21:56.524Z,52.93
2019-01-25T13:23:01.746Z,53.80
2019-01-25T13:24:06.841Z,54.80
2019-01-25T13:25:12.224Z,52.43
2019-01-25T13:26:17.496Z,53.10
2019-01-25T13:27:22.684Z,53.85
2019-01-25T13:28:27.972Z,52.25
2019-01-25T13:29:33.391Z,53.00
2019-01-25T13:30:38.751Z,55.55
2019-01-25T13:31:44.013Z,57.15
2019-01-25T13:32:49.210Z,58.83
2019-01-25T13:33:54.591Z,58.35
2019-01-25T13:34:59.760Z,55.48
2019-01-25T13:36:10.021Z,55.90
2019-01-25T13:37:15.152Z,54.95
2019-01-25T13:38:20.371Z,54.23
2019-01-25T13:39:25.517Z,52.45
2019-01-25T13:40:30.786Z,56.42
2019-01-25T13:41:36.072Z,55.38
2019-01-25T13:42:41.253Z,56.10
2019-01-25T13:43:46.402Z,54.40
2019-01-25T13:44:51.626Z,54.23
2019-01-25T13:45:56.866Z,55.20
2019-01-25T13:47:02.019Z,53.80
2019-01-25T13:48:07.195Z,53.38
2019-01-25T13:49:12.353Z,57.78
2019-01-25T13:50:19.980Z,55.88
2019-01-25T13:51:25.157Z,55.45
2019-01-25T13:52:30.303Z,54.73
2019-01-25T13:53:35.428Z,51.58
2019-01-25T13:54:40.758Z,57.33
2019-01-25T13:55:45.983Z,55.95
2019-01-25T13:56:51.209Z,58.50
2019-01-25T13:57:56.546Z,54.88
2019-01-25T13:59:01.963Z,56.88
2019-01-25T14:00:16.241Z,55.23
2019-01-25T14:01:21.454Z,55.83
2019-01-25T14:02:26.652Z,57.95
2019-01-25T14:03:32.241Z,58.13
2019-01-25T14:04:40.547Z,57.45
2019-01-25T14:05:45.844Z,60.55
2019-01-25T14:06:51.389Z,57.30